createdAt,value
2023-01-25T08:10:41.852Z,12.30
2023-01-25T08:13:12.260Z,13.82
2023-01-25T08:15:45.206Z,16.43
2023-01-25T09:00:50.334Z,14.23
2023-01-25T09:03:20.817Z,15.60
2023-01-25T09:05:52.434Z,15.63
2023-01-25T09:08:22.644Z,13.43
2023-01-25T09:10:52.662Z,12.80
2023-01-25T09:18:25.934Z,15.67
2023-01-25T09:20:56.924Z,15.53
2023-01-25T09:23:28.281Z,14.70
2023-01-25T09:31:18.578Z,13.40
2023-01-25T09:35:30.092Z,9.07
2023-01-25T09:38:02.681Z,9.43
2023-01-25T09:41:01.101Z,8.70
2023-01-25T09:47:59.629Z,10.57
2023-01-25T09:52:08.184Z,11.10
2023-01-25T09:54:47.018Z,10.07
2023-01-25T09:58:24.954Z,8.97
2023-01-25T10:02:07.972Z,10.33
2023-01-25T10:08:40.801Z,9.53
2023-01-25T10:16:00.834Z,9.77
2023-01-25T10:23:34.763Z,9.80
2023-01-25T10:26:08.751Z,11.37
2023-01-25T10:28:48.093Z,12.70
2023-01-25T10:34:58.160Z,11.93
2023-01-25T10:45:13.462Z,12.00
2023-01-25T10:47:47.031Z,11.40
2023-01-25T10:54:18.149Z,13.27
2023-01-25T10:56:52.224Z,11.73
2023-01-25T10:59:24.771Z,13.50
2023-01-25T11:02:42.383Z,13.53
2023-01-25T11:05:29.590Z,12.67
2023-01-25T11:08:01.588Z,12.57
2023-01-25T11:10:36.061Z,13.73
2023-01-25T11:13:53.970Z,14.80
2023-01-25T11:16:36.720Z,15.10
2023-01-25T11:19:47.360Z,14.87
2023-01-25T11:22:26.905Z,13.43
2023-01-25T11:24:57.046Z,14.23
2023-01-25T11:27:30.911Z,13.90
2023-01-25T11:30:11.587Z,14.10
2023-01-25T11:32:43.108Z,14.70
2023-01-25T11:40:45.894Z,15.10
2023-01-25T11:52:28.588Z,15.57
2023-01-25T12:13:24.389Z,15.93
2023-01-25T12:16:04.581Z,15.57
2023-01-25T12:19:03.350Z,15.53
2023-01-25T12:25:27.279Z,15.93
2023-01-25T12:28:08.836Z,17.77
2023-01-25T12:31:05.361Z,18.30
2023-01-25T12:33:40.028Z,17.17
2023-01-25T12:37:00.928Z,16.63
2023-01-25T12:48:22.105Z,15.20
2023-01-25T12:54:46.833Z,14.00
2023-01-25T12:57:27.951Z,15.23
2023-01-25T13:12:56.083Z,13.90
2023-01-25T13:19:46.036Z,14.90
2023-01-25T13:22:17.081Z,16.03
2023-01-25T13:25:47.525Z,13.93
2023-01-25T13:33:49.465Z,13.53
2023-01-25T13:44:23.607Z,10.97
2023-01-25T13:46:53.998Z,13.13
2023-01-25T13:49:26.568Z,11.73
2023-01-25T13:53:52.767Z,12.33
2023-01-25T13:56:30.435Z,11.17
2023-01-25T13:58:59.617Z,12.77
2023-01-25T14:01:31.863Z,12.10
2023-01-25T14:04:53.467Z,13.60
2023-01-25T14:08:06.485Z,11.33
2023-01-25T14:21:34.559Z,11.60
2023-01-25T14:31:35.052Z,10.77
2023-01-25T14:34:29.197Z,12.83
2023-01-25T14:37:16.044Z,12.80
2023-01-25T14:39:48.247Z,12.40
2023-01-25T14:42:43.757Z,12.97
2023-01-25T14:45:15.405Z,11.80
2023-01-25T14:47:48.029Z,12.47
2023-01-25T14:50:37.988Z,11.03
2023-01-25T14:58:11.613Z,11.33
2023-01-25T15:00:41.950Z,11.27
2023-01-25T15:03:37.883Z,12.63
2023-01-25T15:10:39.745Z,12.27
2023-01-25T15:13:30.615Z,12.37
2023-01-25T15:16:50.652Z,12.73
2023-01-25T15:19:24.795Z,12.87
2023-01-25T15:22:44.769Z,14.87
2023-01-25T15:26:30.375Z,13.73
2023-01-25T15:29:02.895Z,16.13
2023-01-25T15:31:34.722Z,13.80
2023-01-25T15:38:32.974Z,14.63
2023-01-25T15:41:03.049Z,13.80
2023-01-25T15:44:06.420Z,13.47
2023-01-25T15:47:27.657Z,14.47
2023-01-25T15:49:57.504Z,14.10
2023-01-25T15:52:37.444Z,12.73
2023-01-25T15:55:08.052Z,14.17
2023-01-25T15:57:39.474Z,12.90
2023-01-25T16:09:37.446Z,15.30
2023-01-25T16:12:07.549Z,13.40
2023-01-25T16:14:40.802Z,13.90
2023-01-25T16:17:19.244Z,14.07
2023-01-25T16:19:51.371Z,15.00
2023-01-25T16:22:26.457Z,12.67
2023-01-25T16:29:34.782Z,13.87
2023-01-25T16:32:06.035Z,13.60
2023-01-25T16:35:53.583Z,13.50
2023-01-25T16:39:39.600Z,14.70
2023-01-25T16:51:08.783Z,15.20
2023-01-25T16:55:37.699Z,17.03
2023-01-25T21:28:40.554Z,21.93
